sensor_id;sensor_type;location;lat;lon;timestamp;P1;durP1;ratioP1;P2;durP2;ratioP2
14276;SDS011;7222;57.346;12.150;2022-10-16T00:01:15;27.60;;;16.13;;
14276;SDS011;7222;57.346;12.150;2022-10-16T00:03:43;28.87;;;15.30;;
14276;SDS011;7222;57.346;12.150;2022-10-16T00:06:11;33.17;;;16.60;;
14276;SDS011;7222;57.346;12.150;2022-10-16T00:08:39;29.67;;;16.10;;
14276;SDS011;7222;57.346;12.150;2022-10-16T00:11:08;31.07;;;16.90;;
14276;SDS011;7222;57.346;12.150;2022-10-16T00:13:37;28.10;;;15.93;;
14276;SDS011;7222;57.346;12.150;2022-10-16T00:16:06;29.17;;;15.57;;
14276;SDS011;7222;57.346;12.150;2022-10-16T00:18:34;26.53;;;15.10;;
14276;SDS011;7222;57.346;12.150;2022-10-16T00:21:02;28.50;;;15.17;;
14276;SDS011;7222;57.346;12.150;2022-10-16T00:23:30;26.57;;;14.73;;
14276;SDS011;7222;57.346;12.150;2022-10-16T00:25:58;25.87;;;14.17;;
14276;SDS011;7222;57.346;12.150;2022-10-16T00:28:28;24.67;;;13.10;;
14276;SDS011;7222;57.346;12.150;2022-10-16T00:30:55;23.30;;;13.53;;
14276;SDS011;7222;57.346;12.150;2022-10-16T00:33:22;26.17;;;13.63;;
14276;SDS011;7222;57.346;12.150;2022-10-16T00:35:50;24.93;;;12.50;;
14276;SDS011;7222;57.346;12.150;2022-10-16T00:38:17;23.93;;;12.43;;
14276;SDS011;7222;57.346;12.150;2022-10-16T00:40:44;20.27;;;10.70;;
14276;SDS011;7222;57.346;12.150;2022-10-16T00:43:12;22.37;;;11.17;;
14276;SDS011;7222;57.346;12.150;2022-10-16T00:45:42;16.77;;;9.57;;
14276;SDS011;7222;57.346;12.150;2022-10-16T00:48:10;17.43;;;9.13;;
14276;SDS011;7222;57.346;12.150;2022-10-16T00:50:40;18.47;;;8.50;;
14276;SDS011;7222;57.346;12.150;2022-10-16T00:53:08;12.33;;;7.70;;
14276;SDS011;7222;57.346;12.150;2022-10-16T00:55:37;20.17;;;7.20;;
14276;SDS011;7222;57.346;12.150;2022-10-16T00:58:04;12.80;;;6.60;;
14276;SDS011;7222;57.346;12.150;2022-10-16T01:00:32;11.70;;;6.33;;
14276;SDS011;7222;57.346;12.150;2022-10-16T01:03:01;12.77;;;5.63;;
14276;SDS011;7222;57.346;12.150;2022-10-16T01:05:30;13.03;;;5.00;;
14276;SDS011;7222;57.346;12.150;2022-10-16T01:08:08;20.67;;;4.97;;
14276;SDS011;7222;57.346;12.150;2022-10-16T01:10:40;14.87;;;5.20;;
14276;SDS011;7222;57.346;12.150;2022-10-16T01:13:13;15.30;;;4.67;;
14276;SDS011;7222;57.346;12.150;2022-10-16T01:15:45;12.37;;;5.10;;
14276;SDS011;7222;57.346;12.150;2022-10-16T01:18:16;10.13;;;5.13;;
14276;SDS011;7222;57.346;12.150;2022-10-16T01:20:47;8.70;;;4.60;;
14276;SDS011;7222;57.346;12.150;2022-10-16T01:23:22;15.83;;;5.30;;
14276;SDS011;7222;57.346;12.150;2022-10-16T01:26:11;14.47;;;5.13;;
14276;SDS011;7222;57.346;12.150;2022-10-16T01:28:49;13.70;;;5.27;;
14276;SDS011;7222;57.346;12.150;2022-10-16T01:31:22;14.57;;;6.00;;
14276;SDS011;7222;57.346;12.150;2022-10-16T01:33:54;11.83;;;4.87;;
14276;SDS011;7222;57.346;12.150;2022-10-16T01:36:27;14.60;;;4.67;;
14276;SDS011;7222;57.346;12.150;2022-10-16T01:39:01;14.07;;;4.47;;
14276;SDS011;7222;57.346;12.150;2022-10-16T01:41:30;11.87;;;5.07;;
14276;SDS011;7222;57.346;12.150;2022-10-16T01:44:03;14.97;;;5.13;;
14276;SDS011;7222;57.346;12.150;2022-10-16T01:46:33;9.57;;;4.57;;
14276;SDS011;7222;57.346;12.150;2022-10-16T01:49:02;16.00;;;5.33;;
14276;SDS011;7222;57.346;12.150;2022-10-16T01:51:31;10.10;;;4.40;;
14276;SDS011;7222;57.346;12.150;2022-10-16T01:54:00;15.27;;;5.60;;
14276;SDS011;7222;57.346;12.150;2022-10-16T01:56:31;11.63;;;4.63;;
14276;SDS011;7222;57.346;12.150;2022-10-16T01:59:01;16.83;;;4.97;;
14276;SDS011;7222;57.346;12.150;2022-10-16T02:01:33;14.00;;;5.37;;
14276;SDS011;7222;57.346;12.150;2022-10-16T02:04:10;12.43;;;5.23;;
14276;SDS011;7222;57.346;12.150;2022-10-16T02:06:41;13.00;;;4.83;;
14276;SDS011;7222;57.346;12.150;2022-10-16T02:09:08;18.87;;;4.97;;
14276;SDS011;7222;57.346;12.150;2022-10-16T02:11:35;13.17;;;5.10;;
14276;SDS011;7222;57.346;12.150;2022-10-16T02:14:03;15.87;;;5.27;;
14276;SDS011;7222;57.346;12.150;2022-10-16T02:16:33;12.07;;;5.03;;
14276;SDS011;7222;57.346;12.150;2022-10-16T02:19:03;11.67;;;4.80;;
14276;SDS011;7222;57.346;12.150;2022-10-16T02:21:33;11.63;;;5.13;;
14276;SDS011;7222;57.346;12.150;2022-10-16T02:24:08;16.63;;;6.17;;
14276;SDS011;7222;57.346;12.150;2022-10-16T02:26:41;13.53;;;5.73;;
14276;SDS011;7222;57.346;12.150;2022-10-16T02:29:14;15.97;;;7.00;;
14276;SDS011;7222;57.346;12.150;2022-10-16T02:31:46;13.47;;;5.53;;
14276;SDS011;7222;57.346;12.150;2022-10-16T02:34:16;17.23;;;7.70;;
14276;SDS011;7222;57.346;12.150;2022-10-16T02:36:45;18.77;;;8.33;;
14276;SDS011;7222;57.346;12.150;2022-10-16T02:39:14;17.63;;;8.40;;
14276;SDS011;7222;57.346;12.150;2022-10-16T02:41:43;19.67;;;10.23;;
14276;SDS011;7222;57.346;12.150;2022-10-16T02:44:10;19.23;;;11.23;;
14276;SDS011;7222;57.346;12.150;2022-10-16T02:46:38;20.57;;;12.77;;
14276;SDS011;7222;57.346;12.150;2022-10-16T02:49:05;27.07;;;15.37;;
14276;SDS011;7222;57.346;12.150;2022-10-16T02:51:32;25.40;;;15.43;;
14276;SDS011;7222;57.346;12.150;2022-10-16T02:53:59;26.87;;;16.47;;
14276;SDS011;7222;57.346;12.150;2022-10-16T02:56:26;26.07;;;14.70;;
14276;SDS011;7222;57.346;12.150;2022-10-16T02:58:54;23.57;;;15.83;;
14276;SDS011;7222;57.346;12.150;2022-10-16T03:01:22;24.70;;;14.13;;
14276;SDS011;7222;57.346;12.150;2022-10-16T03:03:50;24.63;;;14.17;;
14276;SDS011;7222;57.346;12.150;2022-10-16T03:06:18;21.33;;;13.27;;
14276;SDS011;7222;57.346;12.150;2022-10-16T03:08:45;21.60;;;11.70;;
14276;SDS011;7222;57.346;12.150;2022-10-16T03:11:12;21.30;;;13.00;;
14276;SDS011;7222;57.346;12.150;2022-10-16T03:13:39;18.20;;;11.47;;
14276;SDS011;7222;57.346;12.150;2022-10-16T03:16:06;17.67;;;10.50;;
14276;SDS011;7222;57.346;12.150;2022-10-16T03:18:33;17.87;;;9.33;;
14276;SDS011;7222;57.346;12.150;2022-10-16T03:21:01;16.50;;;9.03;;
14276;SDS011;7222;57.346;12.150;2022-10-16T03:23:29;16.83;;;8.83;;
14276;SDS011;7222;57.346;12.150;2022-10-16T03:25:56;17.60;;;9.83;;
14276;SDS011;7222;57.346;12.150;2022-10-16T03:28:23;17.80;;;9.67;;
14276;SDS011;7222;57.346;12.150;2022-10-16T03:30:50;25.63;;;9.77;;
14276;SDS011;7222;57.346;12.150;2022-10-16T03:33:17;20.60;;;10.00;;
14276;SDS011;7222;57.346;12.150;2022-10-16T03:35:50;21.87;;;10.50;;
14276;SDS011;7222;57.346;12.150;2022-10-16T03:38:20;18.43;;;9.40;;
14276;SDS011;7222;57.346;12.150;2022-10-16T03:40:48;16.20;;;9.20;;
14276;SDS011;7222;57.346;12.150;2022-10-16T03:43:15;18.57;;;9.67;;
14276;SDS011;7222;57.346;12.150;2022-10-16T03:45:42;20.17;;;8.73;;
14276;SDS011;7222;57.346;12.150;2022-10-16T03:48:09;16.60;;;9.37;;
14276;SDS011;7222;57.346;12.150;2022-10-16T03:50:36;20.13;;;9.20;;
14276;SDS011;7222;57.346;12.150;2022-10-16T03:53:03;16.80;;;9.37;;
14276;SDS011;7222;57.346;12.150;2022-10-16T03:55:32;17.30;;;9.87;;
14276;SDS011;7222;57.346;12.150;2022-10-16T03:57:59;20.73;;;9.47;;
14276;SDS011;7222;57.346;12.150;2022-10-16T04:00:26;16.77;;;9.40;;
14276;SDS011;7222;57.346;12.150;2022-10-16T04:02:53;15.90;;;8.97;;
14276;SDS011;7222;57.346;12.150;2022-10-16T04:05:20;17.57;;;8.23;;
14276;SDS011;7222;57.346;12.150;2022-10-16T04:07:47;19.57;;;9.63;;
14276;SDS011;7222;57.346;12.150;2022-10-16T04:10:14;17.50;;;9.33;;
14276;SDS011;7222;57.346;12.150;2022-10-16T04:12:43;17.10;;;10.20;;
14276;SDS011;7222;57.346;12.150;2022-10-16T04:15:10;16.60;;;10.20;;
14276;SDS011;7222;57.346;12.150;2022-10-16T04:17:37;17.77;;;9.70;;
14276;SDS011;7222;57.346;12.150;2022-10-16T04:20:05;19.07;;;11.03;;
14276;SDS011;7222;57.346;12.150;2022-10-16T04:22:32;21.47;;;10.73;;
14276;SDS011;7222;57.346;12.150;2022-10-16T04:24:59;20.17;;;11.63;;
14276;SDS011;7222;57.346;12.150;2022-10-16T04:27:26;23.30;;;11.57;;
14276;SDS011;7222;57.346;12.150;2022-10-16T04:29:55;22.47;;;11.17;;
14276;SDS011;7222;57.346;12.150;2022-10-16T04:32:22;24.87;;;11.37;;
14276;SDS011;7222;57.346;12.150;2022-10-16T04:34:49;25.77;;;12.63;;
14276;SDS011;7222;57.346;12.150;2022-10-16T04:37:16;21.77;;;11.67;;
14276;SDS011;7222;57.346;12.150;2022-10-16T04:39:43;23.53;;;12.00;;
14276;SDS011;7222;57.346;12.150;2022-10-16T04:42:10;22.63;;;12.60;;
14276;SDS011;7222;57.346;12.150;2022-10-16T04:44:37;19.73;;;10.70;;
14276;SDS011;7222;57.346;12.150;2022-10-16T04:47:06;21.40;;;11.53;;
14276;SDS011;7222;57.346;12.150;2022-10-16T04:49:33;24.47;;;13.93;;
14276;SDS011;7222;57.346;12.150;2022-10-16T04:52:00;24.10;;;13.53;;
14276;SDS011;7222;57.346;12.150;2022-10-16T04:54:27;20.93;;;12.50;;
14276;SDS011;7222;57.346;12.150;2022-10-16T04:56:54;24.37;;;13.80;;
14276;SDS011;7222;57.346;12.150;2022-10-16T04:59:21;25.67;;;15.77;;
14276;SDS011;7222;57.346;12.150;2022-10-16T05:01:49;30.17;;;14.90;;
14276;SDS011;7222;57.346;12.150;2022-10-16T05:04:17;25.53;;;15.50;;
14276;SDS011;7222;57.346;12.150;2022-10-16T05:06:44;24.33;;;14.73;;
14276;SDS011;7222;57.346;12.150;2022-10-16T05:09:13;24.40;;;13.27;;
14276;SDS011;7222;57.346;12.150;2022-10-16T05:11:40;25.00;;;14.33;;
14276;SDS011;7222;57.346;12.150;2022-10-16T05:14:07;27.13;;;13.43;;
14276;SDS011;7222;57.346;12.150;2022-10-16T05:16:37;21.13;;;12.80;;
14276;SDS011;7222;57.346;12.150;2022-10-16T05:19:04;26.07;;;13.50;;
14276;SDS011;7222;57.346;12.150;2022-10-16T05:21:33;26.50;;;12.30;;
14276;SDS011;7222;57.346;12.150;2022-10-16T05:24:00;24.00;;;12.33;;
14276;SDS011;7222;57.346;12.150;2022-10-16T05:26:27;20.83;;;11.67;;
14276;SDS011;7222;57.346;12.150;2022-10-16T05:28:54;23.50;;;10.07;;
14276;SDS011;7222;57.346;12.150;2022-10-16T05:31:21;19.50;;;8.87;;
14276;SDS011;7222;57.346;12.150;2022-10-16T05:33:48;18.00;;;6.93;;
14276;SDS011;7222;57.346;12.150;2022-10-16T05:36:15;13.80;;;6.23;;
14276;SDS011;7222;57.346;12.150;2022-10-16T05:38:44;10.73;;;5.27;;
14276;SDS011;7222;57.346;12.150;2022-10-16T05:41:11;10.80;;;4.83;;
14276;SDS011;7222;57.346;12.150;2022-10-16T05:43:38;10.83;;;5.17;;
14276;SDS011;7222;57.346;12.150;2022-10-16T05:46:05;11.57;;;5.00;;
14276;SDS011;7222;57.346;12.150;2022-10-16T05:48:32;11.43;;;4.67;;
14276;SDS011;7222;57.346;12.150;2022-10-16T05:51:00;10.67;;;4.53;;
14276;SDS011;7222;57.346;12.150;2022-10-16T05:53:29;10.90;;;5.57;;
14276;SDS011;7222;57.346;12.150;2022-10-16T05:55:58;16.00;;;6.23;;
14276;SDS011;7222;57.346;12.150;2022-10-16T05:58:28;19.13;;;6.87;;
14276;SDS011;7222;57.346;12.150;2022-10-16T06:00:56;19.40;;;7.10;;
14276;SDS011;7222;57.346;12.150;2022-10-16T06:03:24;12.17;;;7.13;;
14276;SDS011;7222;57.346;12.150;2022-10-16T06:05:52;11.60;;;6.97;;
14276;SDS011;7222;57.346;12.150;2022-10-16T06:08:19;14.83;;;6.53;;
14276;SDS011;7222;57.346;12.150;2022-10-16T06:10:48;17.30;;;6.97;;
14276;SDS011;7222;57.346;12.150;2022-10-16T06:13:16;15.63;;;6.17;;
14276;SDS011;7222;57.346;12.150;2022-10-16T06:15:43;14.97;;;5.90;;
14276;SDS011;7222;57.346;12.150;2022-10-16T06:18:11;14.27;;;5.30;;
14276;SDS011;7222;57.346;12.150;2022-10-16T06:20:38;10.83;;;4.67;;
14276;SDS011;7222;57.346;12.150;2022-10-16T06:23:05;10.40;;;4.83;;
14276;SDS011;7222;57.346;12.150;2022-10-16T06:25:32;11.53;;;4.50;;
14276;SDS011;7222;57.346;12.150;2022-10-16T06:27:59;12.03;;;3.23;;
14276;SDS011;7222;57.346;12.150;2022-10-16T06:30:27;10.43;;;3.70;;
14276;SDS011;7222;57.346;12.150;2022-10-16T06:32:54;7.90;;;3.43;;
14276;SDS011;7222;57.346;12.150;2022-10-16T06:35:21;17.47;;;3.67;;
14276;SDS011;7222;57.346;12.150;2022-10-16T06:37:48;8.60;;;2.63;;
14276;SDS011;7222;57.346;12.150;2022-10-16T06:40:15;8.67;;;3.40;;
14276;SDS011;7222;57.346;12.150;2022-10-16T06:42:42;8.37;;;3.33;;
14276;SDS011;7222;57.346;12.150;2022-10-16T06:45:10;9.20;;;3.07;;
14276;SDS011;7222;57.346;12.150;2022-10-16T06:47:39;10.77;;;4.03;;
14276;SDS011;7222;57.346;12.150;2022-10-16T06:50:06;12.53;;;4.87;;
14276;SDS011;7222;57.346;12.150;2022-10-16T06:52:33;15.30;;;4.83;;
14276;SDS011;7222;57.346;12.150;2022-10-16T06:55:00;10.97;;;5.80;;
14276;SDS011;7222;57.346;12.150;2022-10-16T06:57:28;14.10;;;5.50;;
14276;SDS011;7222;57.346;12.150;2022-10-16T06:59:55;16.73;;;5.37;;
14276;SDS011;7222;57.346;12.150;2022-10-16T07:02:22;15.07;;;6.53;;
14276;SDS011;7222;57.346;12.150;2022-10-16T07:04:51;17.87;;;6.67;;
14276;SDS011;7222;57.346;12.150;2022-10-16T07:07:18;15.17;;;6.30;;
14276;SDS011;7222;57.346;12.150;2022-10-16T07:09:45;17.33;;;6.83;;
14276;SDS011;7222;57.346;12.150;2022-10-16T07:12:12;15.43;;;6.53;;
14276;SDS011;7222;57.346;12.150;2022-10-16T07:14:39;19.30;;;7.13;;
14276;SDS011;7222;57.346;12.150;2022-10-16T07:17:06;15.30;;;7.40;;
14276;SDS011;7222;57.346;12.150;2022-10-16T07:19:33;18.17;;;6.80;;
14276;SDS011;7222;57.346;12.150;2022-10-16T07:22:02;13.90;;;5.87;;
14276;SDS011;7222;57.346;12.150;2022-10-16T07:24:30;20.63;;;6.63;;
14276;SDS011;7222;57.346;12.150;2022-10-16T07:26:57;18.63;;;6.37;;
14276;SDS011;7222;57.346;12.150;2022-10-16T07:29:24;15.50;;;5.60;;
14276;SDS011;7222;57.346;12.150;2022-10-16T07:31:51;13.63;;;5.57;;
14276;SDS011;7222;57.346;12.150;2022-10-16T07:34:18;14.17;;;5.10;;
14276;SDS011;7222;57.346;12.150;2022-10-16T07:36:47;18.20;;;5.63;;
14276;SDS011;7222;57.346;12.150;2022-10-16T07:39:16;16.47;;;5.53;;
14276;SDS011;7222;57.346;12.150;2022-10-16T07:41:44;16.40;;;5.40;;
14276;SDS011;7222;57.346;12.150;2022-10-16T07:44:11;18.20;;;5.20;;
14276;SDS011;7222;57.346;12.150;2022-10-16T07:46:38;16.10;;;5.50;;
14276;SDS011;7222;57.346;12.150;2022-10-16T07:49:05;10.47;;;4.40;;
14276;SDS011;7222;57.346;12.150;2022-10-16T07:51:32;18.30;;;5.60;;
14276;SDS011;7222;57.346;12.150;2022-10-16T07:53:59;15.00;;;5.77;;
14276;SDS011;7222;57.346;12.150;2022-10-16T07:56:28;19.27;;;5.80;;
14276;SDS011;7222;57.346;12.150;2022-10-16T07:58:57;15.63;;;5.60;;
14276;SDS011;7222;57.346;12.150;2022-10-16T08:01:24;18.23;;;7.73;;
14276;SDS011;7222;57.346;12.150;2022-10-16T08:03:51;22.10;;;7.03;;
14276;SDS011;7222;57.346;12.150;2022-10-16T08:06:18;15.77;;;6.47;;
14276;SDS011;7222;57.346;12.150;2022-10-16T08:08:47;17.33;;;6.13;;
14276;SDS011;7222;57.346;12.150;2022-10-16T08:11:14;17.77;;;5.53;;
14276;SDS011;7222;57.346;12.150;2022-10-16T08:13:42;20.53;;;6.57;;
14276;SDS011;7222;57.346;12.150;2022-10-16T08:16:09;18.37;;;6.47;;
14276;SDS011;7222;57.346;12.150;2022-10-16T08:18:37;17.27;;;6.13;;
14276;SDS011;7222;57.346;12.150;2022-10-16T08:21:06;17.83;;;6.93;;
14276;SDS011;7222;57.346;12.150;2022-10-16T08:23:37;16.10;;;5.93;;
14276;SDS011;7222;57.346;12.150;2022-10-16T08:26:05;17.70;;;6.20;;
14276;SDS011;7222;57.346;12.150;2022-10-16T08:28:34;16.73;;;6.27;;
14276;SDS011;7222;57.346;12.150;2022-10-16T08:31:10;13.93;;;5.43;;
14276;SDS011;7222;57.346;12.150;2022-10-16T08:33:39;16.07;;;5.63;;
14276;SDS011;7222;57.346;12.150;2022-10-16T08:36:09;15.57;;;5.60;;
14276;SDS011;7222;57.346;12.150;2022-10-16T08:38:36;20.53;;;6.33;;
14276;SDS011;7222;57.346;12.150;2022-10-16T08:44:04;18.63;;;6.60;;
14276;SDS011;7222;57.346;12.150;2022-10-16T08:46:58;21.73;;;6.70;;
14276;SDS011;7222;57.346;12.150;2022-10-16T08:49:31;18.53;;;6.40;;
14276;SDS011;7222;57.346;12.150;2022-10-16T08:51:58;17.60;;;5.97;;
14276;SDS011;7222;57.346;12.150;2022-10-16T08:54:28;16.37;;;6.13;;
14276;SDS011;7222;57.346;12.150;2022-10-16T08:57:00;15.10;;;5.60;;
14276;SDS011;7222;57.346;12.150;2022-10-16T08:59:35;22.03;;;6.37;;
14276;SDS011;7222;57.346;12.150;2022-10-16T09:02:08;13.37;;;5.73;;
14276;SDS011;7222;57.346;12.150;2022-10-16T09:04:51;15.57;;;6.20;;
14276;SDS011;7222;57.346;12.150;2022-10-16T09:07:40;15.77;;;6.90;;
14276;SDS011;7222;57.346;12.150;2022-10-16T09:10:16;16.23;;;6.70;;
14276;SDS011;7222;57.346;12.150;2022-10-16T09:12:53;18.73;;;6.83;;
14276;SDS011;7222;57.346;12.150;2022-10-16T09:15:29;22.90;;;7.43;;
14276;SDS011;7222;57.346;12.150;2022-10-16T09:18:03;22.03;;;6.13;;
14276;SDS011;7222;57.346;12.150;2022-10-16T09:20:38;17.77;;;6.10;;
14276;SDS011;7222;57.346;12.150;2022-10-16T09:23:14;22.43;;;7.03;;
14276;SDS011;7222;57.346;12.150;2022-10-16T09:25:44;20.97;;;6.40;;
14276;SDS011;7222;57.346;12.150;2022-10-16T09:28:14;18.87;;;6.27;;
14276;SDS011;7222;57.346;12.150;2022-10-16T09:30:42;19.23;;;6.00;;
14276;SDS011;7222;57.346;12.150;2022-10-16T09:33:11;20.57;;;6.53;;
14276;SDS011;7222;57.346;12.150;2022-10-16T09:35:40;17.67;;;5.53;;
14276;SDS011;7222;57.346;12.150;2022-10-16T09:38:08;16.40;;;5.40;;
14276;SDS011;7222;57.346;12.150;2022-10-16T09:40:46;18.47;;;5.53;;
14276;SDS011;7222;57.346;12.150;2022-10-16T09:43:17;19.20;;;5.07;;
14276;SDS011;7222;57.346;12.150;2022-10-16T09:45:54;15.13;;;4.70;;
14276;SDS011;7222;57.346;12.150;2022-10-16T09:48:24;15.53;;;4.20;;
14276;SDS011;7222;57.346;12.150;2022-10-16T09:50:57;14.40;;;5.33;;
14276;SDS011;7222;57.346;12.150;2022-10-16T09:53:25;17.67;;;5.17;;
14276;SDS011;7222;57.346;12.150;2022-10-16T09:56:04;15.63;;;4.83;;
14276;SDS011;7222;57.346;12.150;2022-10-16T09:58:32;13.20;;;4.17;;
14276;SDS011;7222;57.346;12.150;2022-10-16T10:00:59;13.60;;;4.53;;
14276;SDS011;7222;57.346;12.150;2022-10-16T10:03:32;14.07;;;4.37;;
14276;SDS011;7222;57.346;12.150;2022-10-16T10:06:05;15.30;;;5.07;;
14276;SDS011;7222;57.346;12.150;2022-10-16T10:08:52;15.57;;;4.80;;
14276;SDS011;7222;57.346;12.150;2022-10-16T10:14:14;21.30;;;6.07;;
14276;SDS011;7222;57.346;12.150;2022-10-16T10:16:46;17.83;;;5.57;;
14276;SDS011;7222;57.346;12.150;2022-10-16T10:19:16;15.00;;;5.10;;
14276;SDS011;7222;57.346;12.150;2022-10-16T10:21:44;16.80;;;5.60;;
14276;SDS011;7222;57.346;12.150;2022-10-16T10:24:12;21.63;;;5.50;;
14276;SDS011;7222;57.346;12.150;2022-10-16T10:26:41;17.17;;;6.17;;
14276;SDS011;7222;57.346;12.150;2022-10-16T10:29:17;21.73;;;6.53;;
14276;SDS011;7222;57.346;12.150;2022-10-16T10:32:02;15.30;;;6.37;;
14276;SDS011;7222;57.346;12.150;2022-10-16T10:34:44;14.80;;;6.03;;
14276;SDS011;7222;57.346;12.150;2022-10-16T10:37:32;17.37;;;6.03;;
14276;SDS011;7222;57.346;12.150;2022-10-16T10:40:09;16.17;;;6.37;;
14276;SDS011;7222;57.346;12.150;2022-10-16T10:42:46;15.17;;;6.00;;
14276;SDS011;7222;57.346;12.150;2022-10-16T10:45:18;14.43;;;5.30;;
14276;SDS011;7222;57.346;12.150;2022-10-16T10:50:48;19.47;;;6.30;;
14276;SDS011;7222;57.346;12.150;2022-10-16T10:53:21;15.00;;;5.47;;
14276;SDS011;7222;57.346;12.150;2022-10-16T10:56:00;19.13;;;5.90;;
14276;SDS011;7222;57.346;12.150;2022-10-16T10:58:50;15.60;;;5.80;;
14276;SDS011;7222;57.346;12.150;2022-10-16T11:01:36;14.47;;;5.47;;
14276;SDS011;7222;57.346;12.150;2022-10-16T11:04:21;18.17;;;5.93;;
14276;SDS011;7222;57.346;12.150;2022-10-16T11:07:02;18.27;;;5.40;;
14276;SDS011;7222;57.346;12.150;2022-10-16T11:09:33;16.43;;;5.50;;
14276;SDS011;7222;57.346;12.150;2022-10-16T11:12:05;19.23;;;4.97;;
14276;SDS011;7222;57.346;12.150;2022-10-16T11:14:36;15.07;;;4.60;;
14276;SDS011;7222;57.346;12.150;2022-10-16T11:17:09;19.17;;;4.33;;
14276;SDS011;7222;57.346;12.150;2022-10-16T11:19:41;14.70;;;4.47;;
14276;SDS011;7222;57.346;12.150;2022-10-16T11:22:15;17.83;;;5.33;;
14276;SDS011;7222;57.346;12.150;2022-10-16T11:24:46;18.17;;;5.33;;
14276;SDS011;7222;57.346;12.150;2022-10-16T11:27:19;17.17;;;6.23;;
14276;SDS011;7222;57.346;12.150;2022-10-16T11:29:52;23.03;;;6.10;;
14276;SDS011;7222;57.346;12.150;2022-10-16T11:32:25;15.10;;;5.93;;
14276;SDS011;7222;57.346;12.150;2022-10-16T11:35:00;17.23;;;5.63;;
14276;SDS011;7222;57.346;12.150;2022-10-16T11:37:38;14.63;;;4.53;;
14276;SDS011;7222;57.346;12.150;2022-10-16T11:40:16;11.10;;;3.73;;
14276;SDS011;7222;57.346;12.150;2022-10-16T11:42:48;12.93;;;4.17;;
14276;SDS011;7222;57.346;12.150;2022-10-16T11:45:24;18.67;;;4.90;;
14276;SDS011;7222;57.346;12.150;2022-10-16T11:47:58;15.17;;;4.30;;
14276;SDS011;7222;57.346;12.150;2022-10-16T11:50:34;15.20;;;4.60;;
14276;SDS011;7222;57.346;12.150;2022-10-16T11:53:08;15.03;;;4.43;;
14276;SDS011;7222;57.346;12.150;2022-10-16T11:55:43;15.50;;;4.23;;
14276;SDS011;7222;57.346;12.150;2022-10-16T11:58:15;16.63;;;4.63;;
14276;SDS011;7222;57.346;12.150;2022-10-16T12:00:51;18.13;;;5.20;;
14276;SDS011;7222;57.346;12.150;2022-10-16T12:03:22;14.90;;;4.90;;
14276;SDS011;7222;57.346;12.150;2022-10-16T12:05:59;15.03;;;4.57;;
14276;SDS011;7222;57.346;12.150;2022-10-16T12:08:40;14.37;;;5.00;;
14276;SDS011;7222;57.346;12.150;2022-10-16T12:11:22;20.53;;;5.17;;
14276;SDS011;7222;57.346;12.150;2022-10-16T12:14:17;17.80;;;5.00;;
14276;SDS011;7222;57.346;12.150;2022-10-16T12:16:54;15.20;;;4.70;;
14276;SDS011;7222;57.346;12.150;2022-10-16T12:19:22;12.20;;;3.77;;
14276;SDS011;7222;57.346;12.150;2022-10-16T12:21:51;15.60;;;4.30;;
14276;SDS011;7222;57.346;12.150;2022-10-16T12:24:26;18.43;;;4.27;;
14276;SDS011;7222;57.346;12.150;2022-10-16T12:26:58;13.90;;;4.83;;
14276;SDS011;7222;57.346;12.150;2022-10-16T12:29:28;8.60;;;3.67;;
14276;SDS011;7222;57.346;12.150;2022-10-16T12:31:59;13.33;;;3.53;;
14276;SDS011;7222;57.346;12.150;2022-10-16T12:34:28;9.47;;;3.17;;
14276;SDS011;7222;57.346;12.150;2022-10-16T12:37:07;8.30;;;2.50;;
14276;SDS011;7222;57.346;12.150;2022-10-16T12:39:41;8.73;;;3.37;;
14276;SDS011;7222;57.346;12.150;2022-10-16T12:42:22;8.40;;;2.87;;
14276;SDS011;7222;57.346;12.150;2022-10-16T12:44:58;13.53;;;2.87;;
14276;SDS011;7222;57.346;12.150;2022-10-16T12:47:35;14.57;;;3.00;;
14276;SDS011;7222;57.346;12.150;2022-10-16T12:52:50;13.80;;;3.23;;
14276;SDS011;7222;57.346;12.150;2022-10-16T12:55:20;11.03;;;3.50;;
14276;SDS011;7222;57.346;12.150;2022-10-16T12:57:54;16.17;;;3.43;;
14276;SDS011;7222;57.346;12.150;2022-10-16T13:00:46;20.70;;;4.53;;
14276;SDS011;7222;57.346;12.150;2022-10-16T13:03:35;10.80;;;3.63;;
14276;SDS011;7222;57.346;12.150;2022-10-16T13:06:19;17.10;;;4.07;;
14276;SDS011;7222;57.346;12.150;2022-10-16T13:09:00;12.80;;;2.93;;
14276;SDS011;7222;57.346;12.150;2022-10-16T13:11:52;12.70;;;3.30;;
14276;SDS011;7222;57.346;12.150;2022-10-16T13:17:35;10.90;;;3.37;;
14276;SDS011;7222;57.346;12.150;2022-10-16T13:20:12;11.80;;;3.57;;
14276;SDS011;7222;57.346;12.150;2022-10-16T13:22:47;10.53;;;2.90;;
14276;SDS011;7222;57.346;12.150;2022-10-16T13:25:22;8.17;;;2.60;;
14276;SDS011;7222;57.346;12.150;2022-10-16T13:27:59;13.83;;;3.03;;
14276;SDS011;7222;57.346;12.150;2022-10-16T13:30:28;9.47;;;3.00;;
14276;SDS011;7222;57.346;12.150;2022-10-16T13:32:59;13.70;;;3.10;;
14276;SDS011;7222;57.346;12.150;2022-10-16T13:35:29;12.70;;;3.87;;
14276;SDS011;7222;57.346;12.150;2022-10-16T13:38:04;17.80;;;4.27;;
14276;SDS011;7222;57.346;12.150;2022-10-16T13:40:47;15.90;;;3.63;;
14276;SDS011;7222;57.346;12.150;2022-10-16T13:43:17;16.40;;;3.97;;
14276;SDS011;7222;57.346;12.150;2022-10-16T13:45:56;13.70;;;4.00;;
14276;SDS011;7222;57.346;12.150;2022-10-16T13:48:24;14.83;;;4.23;;
14276;SDS011;7222;57.346;12.150;2022-10-16T13:50:59;11.40;;;4.03;;
14276;SDS011;7222;57.346;12.150;2022-10-16T13:53:30;8.20;;;3.67;;
14276;SDS011;7222;57.346;12.150;2022-10-16T13:55:59;13.50;;;3.93;;
14276;SDS011;7222;57.346;12.150;2022-10-16T13:58:27;15.67;;;4.73;;
14276;SDS011;7222;57.346;12.150;2022-10-16T14:00:56;21.60;;;5.73;;
14276;SDS011;7222;57.346;12.150;2022-10-16T14:03:25;15.63;;;4.67;;
14276;SDS011;7222;57.346;12.150;2022-10-16T14:05:53;16.60;;;4.50;;
14276;SDS011;7222;57.346;12.150;2022-10-16T14:08:23;13.40;;;3.90;;
14276;SDS011;7222;57.346;12.150;2022-10-16T14:10:53;19.67;;;6.30;;
14276;SDS011;7222;57.346;12.150;2022-10-16T14:13:23;13.13;;;4.93;;
14276;SDS011;7222;57.346;12.150;2022-10-16T14:16:05;12.53;;;4.33;;
14276;SDS011;7222;57.346;12.150;2022-10-16T14:18:34;15.80;;;3.80;;
14276;SDS011;7222;57.346;12.150;2022-10-16T14:21:05;12.27;;;4.40;;
14276;SDS011;7222;57.346;12.150;2022-10-16T14:23:38;17.07;;;4.83;;
14276;SDS011;7222;57.346;12.150;2022-10-16T14:26:13;15.77;;;4.37;;
14276;SDS011;7222;57.346;12.150;2022-10-16T14:28:44;12.73;;;4.50;;
14276;SDS011;7222;57.346;12.150;2022-10-16T14:31:25;18.13;;;4.53;;
14276;SDS011;7222;57.346;12.150;2022-10-16T14:33:54;13.73;;;4.43;;
14276;SDS011;7222;57.346;12.150;2022-10-16T14:36:21;14.30;;;4.30;;
14276;SDS011;7222;57.346;12.150;2022-10-16T14:38:52;13.10;;;5.53;;
14276;SDS011;7222;57.346;12.150;2022-10-16T14:41:27;17.03;;;5.73;;
14276;SDS011;7222;57.346;12.150;2022-10-16T14:43:58;15.23;;;4.40;;
14276;SDS011;7222;57.346;12.150;2022-10-16T14:46:30;15.80;;;5.03;;
14276;SDS011;7222;57.346;12.150;2022-10-16T14:49:02;18.23;;;4.90;;
14276;SDS011;7222;57.346;12.150;2022-10-16T14:51:39;20.53;;;4.60;;
14276;SDS011;7222;57.346;12.150;2022-10-16T14:54:10;17.83;;;5.00;;
14276;SDS011;7222;57.346;12.150;2022-10-16T14:56:42;16.77;;;5.20;;
14276;SDS011;7222;57.346;12.150;2022-10-16T14:59:15;11.70;;;3.93;;
14276;SDS011;7222;57.346;12.150;2022-10-16T15:01:45;17.67;;;3.53;;
14276;SDS011;7222;57.346;12.150;2022-10-16T15:04:13;15.97;;;4.77;;
14276;SDS011;7222;57.346;12.150;2022-10-16T15:06:40;15.13;;;5.40;;
14276;SDS011;7222;57.346;12.150;2022-10-16T15:09:07;18.53;;;4.87;;